createdAt,value
2023-01-17T00:01:33.934Z,5.30
2023-01-17T00:04:22.265Z,5.32
2023-01-17T00:07:14.103Z,5.27
2023-01-17T00:10:07.774Z,5.27
2023-01-17T00:12:42.699Z,5.22
2023-01-17T00:16:14.648Z,5.23
2023-01-17T00:19:16.215Z,5.24
2023-01-17T00:22:47.184Z,5.26
2023-01-17T00:25:56.867Z,5.28
2023-01-17T00:28:36.660Z,5.25
2023-01-17T00:31:26.555Z,5.27
2023-01-17T00:33:55.708Z,5.23
2023-01-17T00:37:15.031Z,5.23
2023-01-17T00:40:09.162Z,5.19
2023-01-17T00:42:50.528Z,5.26
2023-01-17T00:46:05.484Z,5.29
2023-01-17T00:49:14.686Z,5.33
2023-01-17T00:52:05.681Z,5.27
2023-01-17T00:54:53.354Z,5.28
2023-01-17T00:57:42.746Z,5.29
2023-01-17T01:00:30.991Z,5.17
2023-01-17T01:03:17.772Z,5.12
2023-01-17T01:06:04.453Z,5.12
2023-01-17T01:08:51.031Z,5.16
2023-01-17T01:11:39.211Z,5.10
2023-01-17T01:14:29.112Z,5.11
2023-01-17T01:17:17.302Z,5.11
2023-01-17T01:20:04.543Z,5.06
2023-01-17T01:22:51.847Z,5.11
2023-01-17T01:25:39.235Z,5.15
2023-01-17T01:28:28.988Z,5.07
2023-01-17T01:31:23.719Z,5.15
2023-01-17T01:33:53.881Z,5.18
2023-01-17T01:36:23.452Z,5.22
2023-01-17T01:38:53.356Z,5.16
2023-01-17T01:41:23.406Z,5.04
2023-01-17T01:43:54.650Z,5.04
2023-01-17T01:46:28.990Z,4.99
2023-01-17T01:49:05.984Z,5.00
2023-01-17T01:51:46.392Z,4.95
2023-01-17T01:54:17.035Z,4.99
2023-01-17T01:56:49.194Z,4.97
2023-01-17T01:59:23.889Z,4.91
2023-01-17T02:01:55.907Z,4.94
2023-01-17T02:04:26.159Z,4.93
2023-01-17T02:07:09.023Z,4.89
2023-01-17T02:09:39.185Z,4.83
2023-01-17T02:12:09.748Z,4.92
2023-01-17T02:14:38.928Z,4.99
2023-01-17T02:17:34.054Z,4.89
2023-01-17T02:20:25.886Z,4.83
2023-01-17T02:23:46.952Z,4.99
2023-01-17T02:27:00.591Z,5.04
2023-01-17T02:30:10.682Z,5.04
2023-01-17T02:33:51.595Z,5.10
2023-01-17T02:37:12.025Z,5.19
2023-01-17T02:39:49.533Z,5.24
2023-01-17T02:42:20.515Z,5.22
2023-01-17T02:44:50.889Z,5.20
2023-01-17T02:47:22.012Z,5.15
2023-01-17T02:49:55.150Z,5.23
2023-01-17T02:52:46.059Z,5.20
2023-01-17T02:55:38.056Z,5.19
2023-01-17T02:58:24.813Z,5.18
2023-01-17T03:00:52.988Z,5.09
2023-01-17T03:03:27.602Z,5.06
2023-01-17T03:05:59.703Z,5.04
2023-01-17T03:08:29.688Z,5.12
2023-01-17T03:10:57.663Z,5.14
2023-01-17T03:13:27.052Z,5.07
2023-01-17T03:15:55.546Z,4.99
2023-01-17T03:18:23.744Z,5.01
2023-01-17T03:20:51.689Z,5.09
2023-01-17T03:23:19.531Z,5.11
2023-01-17T03:25:47.419Z,5.16
2023-01-17T03:28:15.367Z,5.19
2023-01-17T03:30:43.707Z,5.22
2023-01-17T03:33:11.563Z,5.31
2023-01-17T03:35:41.772Z,5.38
2023-01-17T03:38:09.629Z,5.46
2023-01-17T03:40:37.768Z,5.51
2023-01-17T03:43:05.719Z,5.55
2023-01-17T03:45:36.299Z,5.56
2023-01-17T03:48:10.715Z,5.55
2023-01-17T03:50:41.017Z,5.59
2023-01-17T03:53:14.186Z,5.56
2023-01-17T03:56:23.032Z,5.62
2023-01-17T03:59:13.176Z,5.71
2023-01-17T04:01:42.846Z,5.76
2023-01-17T04:04:10.928Z,5.73
2023-01-17T04:06:44.197Z,5.73
2023-01-17T04:09:14.650Z,5.72
2023-01-17T04:11:51.404Z,5.78
2023-01-17T04:14:21.185Z,5.77
2023-01-17T04:16:54.652Z,5.71
2023-01-17T04:19:27.159Z,5.82
2023-01-17T04:21:58.892Z,5.82
2023-01-17T04:24:29.454Z,5.89
2023-01-17T04:27:00.995Z,5.92
2023-01-17T04:29:30.921Z,5.93
2023-01-17T04:31:59.674Z,5.94
2023-01-17T04:34:46.689Z,5.97
2023-01-17T04:37:25.216Z,5.98
2023-01-17T04:40:01.429Z,5.95
2023-01-17T04:42:30.641Z,5.91
2023-01-17T04:44:58.535Z,5.94
2023-01-17T04:47:26.514Z,5.98
2023-01-17T04:49:56.736Z,5.96
2023-01-17T04:52:25.796Z,5.95
2023-01-17T04:54:54.004Z,5.93
2023-01-17T04:57:22.873Z,5.92
2023-01-17T04:59:50.883Z,5.94
2023-01-17T05:02:18.835Z,5.98
2023-01-17T05:04:46.862Z,5.94
2023-01-17T05:07:17.983Z,5.92
2023-01-17T05:09:46.068Z,5.90
2023-01-17T05:12:15.158Z,5.91
2023-01-17T05:14:43.880Z,5.91
2023-01-17T05:17:11.989Z,5.88
2023-01-17T05:19:40.102Z,5.85
2023-01-17T05:22:14.989Z,5.83
2023-01-17T05:24:43.905Z,5.82
2023-01-17T05:27:14.815Z,5.81
2023-01-17T05:29:43.074Z,5.81
2023-01-17T05:32:12.067Z,5.79
2023-01-17T05:34:40.293Z,5.77
2023-01-17T05:37:14.080Z,5.76
2023-01-17T05:39:42.217Z,5.73
2023-01-17T05:42:10.369Z,5.67
2023-01-17T05:44:40.671Z,5.72
2023-01-17T05:47:13.086Z,5.76
2023-01-17T05:49:42.967Z,5.75
2023-01-17T05:52:14.221Z,5.76
2023-01-17T05:54:43.231Z,5.72
2023-01-17T05:57:13.649Z,5.73
2023-01-17T05:59:43.818Z,5.79
2023-01-17T06:02:11.789Z,5.72
2023-01-17T06:04:41.024Z,5.68
2023-01-17T06:07:10.922Z,5.63
2023-01-17T06:09:39.043Z,5.67
2023-01-17T06:12:08.508Z,5.67
2023-01-17T06:14:37.479Z,5.69
2023-01-17T06:17:06.709Z,5.57
2023-01-17T06:19:34.889Z,5.46
2023-01-17T06:22:06.584Z,5.54
2023-01-17T06:24:35.442Z,5.60
2023-01-17T06:27:04.557Z,5.59
2023-01-17T06:29:33.828Z,5.57
2023-01-17T06:32:01.957Z,5.56
2023-01-17T06:34:30.160Z,5.52
2023-01-17T06:36:58.242Z,5.50
2023-01-17T06:39:26.212Z,5.56
2023-01-17T06:41:54.911Z,5.58
2023-01-17T06:44:22.797Z,5.60
2023-01-17T06:46:53.140Z,5.62
2023-01-17T06:49:23.905Z,5.58
2023-01-17T06:51:53.100Z,5.60
2023-01-17T06:54:21.518Z,5.67
2023-01-17T06:56:49.328Z,5.69
2023-01-17T06:59:17.190Z,5.70
2023-01-17T07:01:45.595Z,5.72
2023-01-17T07:04:13.327Z,5.73
2023-01-17T07:06:41.173Z,5.71
2023-01-17T07:09:09.069Z,5.70
2023-01-17T07:11:37.005Z,5.74
2023-01-17T07:14:04.805Z,5.76
2023-01-17T07:16:36.659Z,5.81
2023-01-17T07:19:05.726Z,5.85
2023-01-17T07:21:34.893Z,5.84
2023-01-17T07:24:02.718Z,5.93
2023-01-17T07:26:30.716Z,5.94
2023-01-17T07:29:03.756Z,5.91
2023-01-17T07:31:41.161Z,5.95
2023-01-17T07:34:14.901Z,5.95
2023-01-17T07:36:45.966Z,6.00
2023-01-17T07:39:14.451Z,5.99
2023-01-17T07:41:45.029Z,6.07
2023-01-17T07:44:13.694Z,6.10
2023-01-17T07:46:41.650Z,6.21
2023-01-17T07:49:11.879Z,6.24
2023-01-17T07:52:00.118Z,6.31
2023-01-17T07:54:29.630Z,6.33
2023-01-17T07:56:59.681Z,6.34
2023-01-17T07:59:27.540Z,6.44
2023-01-17T08:01:56.026Z,6.46
2023-01-17T08:04:27.927Z,6.47
2023-01-17T08:06:56.153Z,6.54
2023-01-17T08:09:24.299Z,6.49
2023-01-17T08:11:52.480Z,6.45
2023-01-17T08:14:20.485Z,6.60
2023-01-17T08:16:48.268Z,6.67
2023-01-17T08:19:18.549Z,6.76
2023-01-17T08:21:50.878Z,6.79
2023-01-17T08:24:19.904Z,7.01
2023-01-17T08:26:47.873Z,6.96
2023-01-17T08:29:20.378Z,6.98
2023-01-17T08:31:48.710Z,7.03
2023-01-17T08:34:18.124Z,6.97
2023-01-17T08:36:48.376Z,6.90
2023-01-17T08:39:18.746Z,7.00
2023-01-17T08:41:48.756Z,6.97
2023-01-17T08:44:17.303Z,6.95
2023-01-17T08:46:45.269Z,7.04
2023-01-17T08:49:14.676Z,7.00
2023-01-17T08:51:42.608Z,7.16
2023-01-17T08:54:14.629Z,7.30
2023-01-17T08:56:43.121Z,7.39
2023-01-17T08:59:11.579Z,7.32
2023-01-17T09:01:46.074Z,7.33
2023-01-17T09:04:14.299Z,7.31
2023-01-17T09:06:44.309Z,7.23
2023-01-17T09:09:13.840Z,7.36
2023-01-17T09:11:42.540Z,7.52
2023-01-17T09:14:14.013Z,7.53
2023-01-17T09:16:42.708Z,7.74
2023-01-17T09:19:10.768Z,8.12
2023-01-17T09:21:39.837Z,8.27
2023-01-17T09:24:09.090Z,8.49
2023-01-17T09:26:37.234Z,8.91
2023-01-17T09:29:07.031Z,9.01
2023-01-17T09:31:35.035Z,9.11
2023-01-17T09:34:03.504Z,9.30
2023-01-17T09:36:32.055Z,9.46
2023-01-17T09:39:02.283Z,9.53
2023-01-17T09:41:34.777Z,9.54
2023-01-17T09:44:22.384Z,9.66
2023-01-17T09:46:53.991Z,9.79
2023-01-17T09:49:39.207Z,9.96
2023-01-17T09:52:08.889Z,10.24
2023-01-17T09:54:41.749Z,10.77
2023-01-17T09:57:19.714Z,11.67
2023-01-17T10:00:03.187Z,12.58
2023-01-17T10:02:53.543Z,13.39
2023-01-17T10:05:40.053Z,13.95
2023-01-17T10:08:27.069Z,14.20
2023-01-17T10:10:56.165Z,14.46
2023-01-17T10:13:44.110Z,14.89
2023-01-17T10:16:15.132Z,15.34
2023-01-17T10:18:54.337Z,15.77
2023-01-17T10:21:43.876Z,16.25
2023-01-17T10:27:52.609Z,17.16
2023-01-17T10:30:51.266Z,17.44
2023-01-17T10:33:42.506Z,17.52
2023-01-17T10:37:06.746Z,17.46
2023-01-17T10:40:16.491Z,17.13
2023-01-17T10:43:24.089Z,16.43
2023-01-17T10:54:27.915Z,16.72
2023-01-17T11:01:30.745Z,17.26
2023-01-17T11:08:26.738Z,16.16
2023-01-17T11:15:28.919Z,15.67
2023-01-17T11:18:24.788Z,15.65
2023-01-17T11:21:05.374Z,15.73
2023-01-17T11:23:39.352Z,15.86
2023-01-17T11:33:50.995Z,15.12
2023-01-17T11:52:39.192Z,13.61
2023-01-17T12:08:12.959Z,12.73
2023-01-17T12:15:27.740Z,12.40
2023-01-17T12:22:04.826Z,12.42
2023-01-17T12:47:29.070Z,11.63
2023-01-17T13:02:24.815Z,11.72
2023-01-17T13:12:12.404Z,11.46
2023-01-17T13:31:19.706Z,11.15
2023-01-17T13:50:57.235Z,11.02
2023-01-17T14:00:46.806Z,10.85
2023-01-17T14:03:19.823Z,10.56
2023-01-17T14:15:04.973Z,10.11
2023-01-17T14:17:56.982Z,9.97
2023-01-17T14:28:20.479Z,9.83
2023-01-17T14:37:30.495Z,9.49
2023-01-17T14:44:37.536Z,9.24
2023-01-17T15:01:35.198Z,8.72
2023-01-17T15:10:14.632Z,8.51
2023-01-17T15:17:36.908Z,8.50
2023-01-17T15:20:22.175Z,8.51
2023-01-17T15:23:13.832Z,8.59
2023-01-17T15:26:03.002Z,8.55
2023-01-17T15:31:59.482Z,8.48
2023-01-17T15:38:15.632Z,8.46
2023-01-17T15:52:14.905Z,8.41
2023-01-17T15:55:01.013Z,8.42
2023-01-17T15:57:41.299Z,8.39
2023-01-17T16:01:30.946Z,8.39
2023-01-17T16:22:01.278Z,8.40
2023-01-17T16:27:28.407Z,8.45
2023-01-17T16:45:47.789Z,8.62
2023-01-17T17:00:01.972Z,8.57
2023-01-17T17:07:37.767Z,8.46
2023-01-17T17:11:10.853Z,8.46
2023-01-17T17:13:41.150Z,8.41
2023-01-17T17:35:35.855Z,8.37
2023-01-17T17:51:13.931Z,8.38
2023-01-17T17:58:02.759Z,8.42
2023-01-17T18:03:57.940Z,8.41
2023-01-17T18:06:57.550Z,8.38
2023-01-17T18:16:57.874Z,8.25
2023-01-17T18:19:31.012Z,8.33
2023-01-17T18:32:33.459Z,8.29
2023-01-17T18:35:03.827Z,8.35
2023-01-17T18:43:58.997Z,8.28
2023-01-17T18:47:07.696Z,8.20
2023-01-17T18:50:00.098Z,8.18
2023-01-17T18:56:05.693Z,8.24
2023-01-17T18:59:38.756Z,8.29
2023-01-17T19:06:17.341Z,8.44
2023-01-17T19:14:51.235Z,8.55
2023-01-17T19:17:54.966Z,8.59
2023-01-17T19:23:55.913Z,8.67
2023-01-17T19:27:17.771Z,8.77
2023-01-17T19:33:27.544Z,8.83
2023-01-17T19:39:31.311Z,8.74
2023-01-17T19:42:01.142Z,8.67
2023-01-17T19:50:54.677Z,8.91
2023-01-17T19:53:24.840Z,9.01
2023-01-17T19:56:00.305Z,9.07
2023-01-17T19:58:33.998Z,9.12
2023-01-17T20:01:15.677Z,9.21
2023-01-17T20:03:48.429Z,9.21
2023-01-17T20:06:52.297Z,9.24
2023-01-17T20:09:35.824Z,9.16
2023-01-17T20:12:03.969Z,9.16
2023-01-17T20:14:31.998Z,9.13
2023-01-17T20:17:03.162Z,9.33
2023-01-17T20:19:32.202Z,9.66
2023-01-17T20:25:07.165Z,10.09
2023-01-17T20:30:34.782Z,10.20
2023-01-17T20:33:03.477Z,10.03
2023-01-17T20:38:27.708Z,9.45
2023-01-17T20:41:42.124Z,9.45
2023-01-17T20:44:13.110Z,9.31
2023-01-17T20:50:43.793Z,9.49
2023-01-17T20:53:13.648Z,9.39
2023-01-17T20:55:42.669Z,9.29
2023-01-17T20:58:11.343Z,9.33
2023-01-17T21:00:42.477Z,9.60
2023-01-17T21:06:02.923Z,9.80
2023-01-17T21:08:54.109Z,9.77
2023-01-17T21:11:24.865Z,9.56
2023-01-17T21:13:53.699Z,9.54
2023-01-17T21:20:36.772Z,9.59
2023-01-17T21:27:14.593Z,9.97
2023-01-17T21:29:50.298Z,9.90
2023-01-17T21:32:18.864Z,9.96
2023-01-17T21:34:47.937Z,9.97
2023-01-17T21:40:30.223Z,9.99
2023-01-17T21:43:00.892Z,9.96
2023-01-17T21:45:32.258Z,9.88
2023-01-17T21:50:47.648Z,9.91
2023-01-17T21:57:51.777Z,9.96
2023-01-17T22:00:20.662Z,10.06
2023-01-17T22:09:20.424Z,10.47
2023-01-17T22:11:50.055Z,10.63
2023-01-17T22:27:38.368Z,10.85
2023-01-17T22:34:10.700Z,10.83
2023-01-17T22:36:41.799Z,10.92
2023-01-17T22:39:11.417Z,10.92
2023-01-17T22:41:41.885Z,10.94
2023-01-17T22:44:34.356Z,10.94
2023-01-17T22:47:03.401Z,10.91
2023-01-17T22:49:31.829Z,10.90
2023-01-17T22:52:02.373Z,10.82
2023-01-17T22:54:36.240Z,10.81
2023-01-17T22:57:08.594Z,10.73
2023-01-17T23:00:06.416Z,10.63
2023-01-17T23:02:34.722Z,10.56
2023-01-17T23:05:03.206Z,10.49
2023-01-17T23:07:43.846Z,10.45
2023-01-17T23:10:17.951Z,10.32
2023-01-17T23:17:39.628Z,10.24
2023-01-17T23:20:09.547Z,10.21
2023-01-17T23:22:38.206Z,10.17
2023-01-17T23:29:08.879Z,10.19
2023-01-17T23:31:36.829Z,10.17
2023-01-17T23:34:04.773Z,10.23
2023-01-17T23:36:45.327Z,10.24
2023-01-17T23:39:13.498Z,10.31
2023-01-17T23:42:00.006Z,10.37
2023-01-17T23:44:31.902Z,10.39
2023-01-17T23:47:00.208Z,10.35
2023-01-17T23:49:29.720Z,10.32
2023-01-17T23:51:57.562Z,10.30
2023-01-17T23:54:25.466Z,10.27
2023-01-17T23:56:53.528Z,10.23
2023-01-17T23:59:21.287Z,10.22
